createdAt,value
2019-02-23T00:04:54.401Z,36
2019-02-23T00:09:56.851Z,40
2019-02-23T00:14:59.313Z,40
2019-02-23T00:41:18.408Z,37
2019-02-23T00:45:14.080Z,42
2019-02-23T00:50:16.531Z,45
2019-02-23T00:55:19.061Z,42
2019-02-23T01:00:21.434Z,38
2019-02-23T01:05:23.917Z,38
2019-02-23T01:10:26.391Z,37
2019-02-23T01:15:28.806Z,36
2019-02-23T01:20:31.339Z,38
2019-02-23T01:25:33.723Z,38
2019-02-23T01:30:36.161Z,38
2019-02-23T01:35:38.623Z,40
2019-02-23T01:40:41.103Z,35
2019-02-23T01:45:43.533Z,36
2019-02-23T01:50:46.001Z,35
2019-02-23T01:55:48.477Z,30
2019-02-23T02:00:50.978Z,34
2019-02-23T02:05:53.368Z,29
2019-02-23T02:10:55.865Z,33
2019-02-23T02:15:58.307Z,27
2019-02-23T02:21:00.732Z,26
2019-02-23T02:26:03.186Z,26
2019-02-23T02:31:05.707Z,20
2019-02-23T02:36:08.127Z,19
2019-02-23T02:41:10.554Z,21
2019-02-23T02:46:13.030Z,14
2019-02-23T02:51:15.475Z,16
2019-02-23T02:56:17.937Z,14
2019-02-23T03:01:20.399Z,17
2019-02-23T03:06:22.869Z,19
2019-02-23T03:11:25.307Z,14
2019-02-23T03:16:27.839Z,17
2019-02-23T03:21:30.212Z,20
2019-02-23T03:26:32.711Z,14
2019-02-23T03:31:35.141Z,18
2019-02-23T03:36:37.586Z,9
2019-02-23T03:41:40.057Z,17
2019-02-23T03:46:42.491Z,14
2019-02-23T03:51:44.991Z,12
2019-02-23T03:56:47.480Z,10
2019-02-23T04:01:49.877Z,11
2019-02-23T04:06:52.318Z,10
2019-02-23T04:11:54.869Z,14
2019-02-23T04:16:57.306Z,12
2019-02-23T04:21:59.698Z,12
2019-02-23T04:27:07.460Z,16
2019-02-23T04:32:04.743Z,10
2019-02-23T04:37:07.083Z,13
2019-02-23T04:42:09.828Z,10
2019-02-23T04:47:12.032Z,16
2019-02-23T04:52:14.437Z,10
2019-02-23T04:57:16.897Z,10
2019-02-23T05:02:19.384Z,13
2019-02-23T05:07:21.877Z,12
2019-02-23T05:12:24.270Z,18
2019-02-23T05:37:36.566Z,13
2019-02-23T05:42:39.019Z,13
2019-02-23T05:47:41.524Z,11
2019-02-23T05:52:44.024Z,8
2019-02-23T05:57:46.406Z,14
2019-02-23T06:02:48.840Z,9
2019-02-23T06:07:51.376Z,10
2019-02-23T06:12:53.751Z,10
2019-02-23T06:17:56.212Z,7
2019-02-23T06:22:58.714Z,8
2019-02-23T06:28:01.161Z,7
2019-02-23T06:33:03.656Z,7
2019-02-23T06:38:06.082Z,11
2019-02-23T06:43:08.491Z,7
2019-02-23T06:48:10.950Z,10
2019-02-23T06:53:13.397Z,8
2019-02-23T06:58:15.869Z,9
2019-02-23T07:03:18.329Z,9
2019-02-23T07:08:20.792Z,6
2019-02-23T07:13:23.232Z,10
2019-02-23T07:18:25.690Z,6
2019-02-23T07:23:28.181Z,7
2019-02-23T07:28:30.602Z,9
2019-02-23T07:33:33.410Z,12
2019-02-23T07:38:35.661Z,8
2019-02-23T07:43:37.960Z,9
2019-02-23T07:48:40.464Z,10
2019-02-23T07:53:42.878Z,10
2019-02-23T07:58:45.339Z,9
2019-02-23T08:03:47.804Z,11
2019-02-23T08:08:50.327Z,8
2019-02-23T08:13:52.735Z,8
2019-02-23T08:18:55.313Z,9
2019-02-23T08:23:57.646Z,8
2019-02-23T08:29:00.103Z,9
2019-02-23T08:34:02.605Z,9
2019-02-23T08:39:05.028Z,7
2019-02-23T08:44:07.542Z,7
2019-02-23T08:49:09.960Z,11
2019-02-23T08:54:12.420Z,7
2019-02-23T08:59:14.867Z,8
2019-02-23T09:04:17.317Z,7
2019-02-23T09:09:19.808Z,7
2019-02-23T09:14:22.233Z,7
2019-02-23T09:19:24.677Z,9
2019-02-23T09:24:27.187Z,9
2019-02-23T09:29:29.596Z,7
2019-02-23T09:34:32.058Z,7
2019-02-23T09:39:34.511Z,15
2019-02-23T09:44:36.979Z,8
2019-02-23T09:49:39.629Z,8
2019-02-23T09:54:41.891Z,6
2019-02-23T09:59:44.343Z,7
2019-02-23T10:04:46.841Z,7
2019-02-23T10:09:49.287Z,7
2019-02-23T10:14:51.781Z,7
2019-02-23T10:19:54.176Z,7
2019-02-23T10:24:56.660Z,6
2019-02-23T10:29:59.095Z,5
2019-02-23T10:40:04.049Z,5
2019-02-23T10:45:06.520Z,3
2019-02-23T10:50:08.968Z,4
2019-02-23T10:55:11.453Z,4
2019-02-23T11:00:13.856Z,8
2019-02-23T11:05:16.354Z,5
2019-02-23T11:10:18.794Z,7
2019-02-23T11:15:21.231Z,6
2019-02-23T11:20:23.696Z,6
2019-02-23T11:25:26.165Z,5
2019-02-23T11:30:28.587Z,5
2019-02-23T11:35:31.044Z,5
2019-02-23T11:40:33.508Z,5
2019-02-23T11:45:36.037Z,4
2019-02-23T11:50:38.426Z,4
2019-02-23T11:55:40.922Z,3
2019-02-23T12:00:43.338Z,5
2019-02-23T12:05:45.861Z,5
2019-02-23T12:10:48.248Z,7
2019-02-23T12:15:50.746Z,2
2019-02-23T12:20:53.180Z,5
2019-02-23T12:25:55.622Z,7
2019-02-23T12:30:58.105Z,5
2019-02-23T12:36:00.573Z,5
2019-02-23T12:41:03.005Z,2
2019-02-23T12:46:05.460Z,4
2019-02-23T12:51:07.944Z,3
2019-02-23T12:56:10.380Z,3
2019-02-23T13:01:12.931Z,4
2019-02-23T13:06:15.293Z,5
2019-02-23T13:11:17.763Z,4
2019-02-23T13:16:20.201Z,5
2019-02-23T13:21:22.750Z,4
2019-02-23T13:26:25.131Z,5
2019-02-23T13:31:27.570Z,3
2019-02-23T13:36:30.057Z,4
2019-02-23T13:41:32.560Z,4
2019-02-23T13:46:34.978Z,5
2019-02-23T13:51:37.418Z,5
2019-02-23T13:56:39.869Z,4
2019-02-23T14:01:42.336Z,3
2019-02-23T14:06:44.905Z,4
2019-02-23T14:11:47.231Z,3
2019-02-23T14:21:52.155Z,4
2019-02-23T14:26:54.620Z,8
2019-02-23T14:31:57.052Z,11
2019-02-23T14:36:59.518Z,8
2019-02-23T14:42:02.002Z,3
2019-02-23T14:47:04.418Z,9
2019-02-23T14:52:06.901Z,7
2019-02-23T14:57:09.342Z,7
2019-02-23T15:02:11.855Z,5
2019-02-23T15:07:14.370Z,3
2019-02-23T15:12:16.714Z,6
2019-02-23T15:17:19.172Z,4
2019-02-23T15:22:21.647Z,4
2019-02-23T15:27:24.137Z,4
2019-02-23T15:32:26.557Z,4
2019-02-23T15:37:29.012Z,5
2019-02-23T15:42:31.494Z,5
2019-02-23T15:47:33.992Z,5
2019-02-23T15:52:36.404Z,7
2019-02-23T15:57:38.845Z,13
2019-02-23T16:02:41.311Z,7
2019-02-23T16:07:43.853Z,10
2019-02-23T16:12:46.297Z,9
2019-02-23T16:17:48.696Z,7
2019-02-23T16:22:51.156Z,9
2019-02-23T16:27:53.642Z,7
2019-02-23T16:32:56.083Z,13
2019-02-23T16:37:58.556Z,10
2019-02-23T16:43:01.055Z,9
2019-02-23T16:48:03.545Z,8
2019-02-23T16:53:05.960Z,11
2019-02-23T16:58:08.424Z,27
2019-02-23T17:03:10.887Z,17
2019-02-23T17:08:13.326Z,10
2019-02-23T17:13:15.899Z,15
2019-02-23T17:18:18.261Z,10
2019-02-23T17:23:20.738Z,18
2019-02-23T17:28:23.175Z,20
2019-02-23T17:33:27.945Z,23
2019-02-23T17:38:28.095Z,27
2019-02-23T17:43:30.559Z,12
2019-02-23T17:53:35.485Z,28
2019-02-23T17:58:37.951Z,28
2019-02-23T18:03:40.418Z,45
2019-02-23T18:08:42.857Z,94
2019-02-23T18:13:45.320Z,32
2019-02-23T18:18:47.758Z,23
2019-02-23T18:23:50.223Z,31
2019-02-23T18:28:52.674Z,17
2019-02-23T18:33:55.317Z,24
2019-02-23T18:38:57.606Z,30
2019-02-23T18:44:00.068Z,26
2019-02-23T18:49:02.505Z,14
2019-02-23T18:54:04.958Z,16
2019-02-23T18:59:07.428Z,19
2019-02-23T19:04:09.880Z,16
2019-02-23T19:09:12.340Z,12
2019-02-23T19:14:14.821Z,17
2019-02-23T19:19:17.316Z,13
2019-02-23T19:24:19.704Z,15
2019-02-23T19:29:22.293Z,17
2019-02-23T19:34:24.613Z,14
2019-02-23T19:39:27.066Z,16
2019-02-23T19:44:29.543Z,19
2019-02-23T19:49:31.987Z,14
2019-02-23T19:54:34.436Z,17
2019-02-23T19:59:36.905Z,18
2019-02-23T20:04:39.347Z,15
2019-02-23T20:09:41.819Z,23
2019-02-23T20:14:44.265Z,24
2019-02-23T20:19:46.723Z,21
2019-02-23T20:24:49.185Z,23
2019-02-23T20:29:51.631Z,19
2019-02-23T20:34:54.201Z,20
2019-02-23T20:39:56.580Z,19
2019-02-23T20:44:59.006Z,23
2019-02-23T20:50:01.712Z,19
2019-02-23T20:55:03.910Z,17
2019-02-23T21:00:11.374Z,15
2019-02-23T21:05:08.846Z,19
2019-02-23T21:10:11.302Z,16
2019-02-23T21:15:13.743Z,19
2019-02-23T21:20:16.267Z,16
2019-02-23T21:25:18.651Z,18
2019-02-23T21:30:21.118Z,14
2019-02-23T21:35:23.598Z,18
2019-02-23T21:40:26.072Z,16
2019-02-23T21:45:28.479Z,26
2019-02-23T21:50:30.940Z,22
2019-02-23T21:55:33.411Z,19
2019-02-23T22:00:35.876Z,16
2019-02-23T22:05:38.323Z,17
2019-02-23T22:10:40.788Z,14
2019-02-23T22:15:43.243Z,20
2019-02-23T22:20:45.681Z,19
2019-02-23T22:25:48.149Z,16
2019-02-23T22:30:50.606Z,16
2019-02-23T22:35:53.070Z,18
2019-02-23T22:40:55.505Z,18
2019-02-23T22:45:57.980Z,19
2019-02-23T22:51:00.512Z,15
2019-02-23T22:56:02.887Z,19
2019-02-23T23:01:05.371Z,24
2019-02-23T23:06:07.802Z,47
2019-02-23T23:11:10.250Z,21
2019-02-23T23:16:12.706Z,16
2019-02-23T23:21:15.169Z,23
2019-02-23T23:26:17.676Z,21
2019-02-23T23:31:20.071Z,21
2019-02-23T23:36:22.623Z,21
2019-02-23T23:41:24.997Z,24
2019-02-23T23:46:27.471Z,18
2019-02-23T23:51:30.115Z,20
2019-02-23T23:56:32.377Z,20
